Time;durP1;ratioP1;P1;durP2;ratioP2;P2;SDS_P1;SDS_P2;PMS_P1;PMS_P2;Temp;Humidity;BMP_temperature;BMP_pressure;BME280_temperature;BME280_humidity;BME280_pressure;Samples;Min_cycle;Max_cycle;Signal;HPM_P1;HPM_P2
2022/01/24 00:00:11;;;;;;;2.58;1.25;;;;;;;;;;5069167;28;20112;-66
2022/01/24 00:02:37;;;;;;;2.53;1.05;;;;;;;;;;5069152;28;20484;-66
2022/01/24 00:05:03;;;;;;;3.70;1.80;;;;;;;;;;5069103;28;20549;-66
2022/01/24 00:07:28;;;;;;;3.65;1.73;;;;;;;;;;5069652;28;20037;-67
2022/01/24 00:09:57;;;;;;;3.67;1.73;;;;;;;;;;5070062;28;20032;-65
2022/01/24 00:12:33;;;;;;;1.50;1.20;;;;;;;;;;5067969;28;20412;-65
2022/01/24 00:28:20;;;;;;;3.50;2.22;;;;;;;;;;5069083;28;20400;-66
2022/01/24 00:30:46;;;;;;;3.67;1.40;;;;;;;;;;5069881;28;20020;-66
2022/01/24 00:33:11;;;;;;;3.80;1.55;;;;;;;;;;5069714;28;20107;-65
2022/01/24 00:35:36;;;;;;;1.20;0.80;;;;;;;;;;5069487;28;20025;-66
2022/01/24 00:38:02;;;;;;;1.98;1.20;;;;;;;;;;5068822;28;20020;-66
2022/01/24 00:40:29;;;;;;;2.85;1.60;;;;;;;;;;5069245;28;20025;-66
2022/01/24 00:42:58;;;;;;;4.15;1.50;;;;;;;;;;5057056;28;20021;-66
2022/01/24 00:55:36;;;;;;;1.92;1.17;;;;;;;;;;5069967;28;20031;-66
2022/01/24 00:58:01;;;;;;;5.07;2.03;;;;;;;;;;5069370;28;20020;-65
2022/01/24 01:00:26;;;;;;;4.75;2.05;;;;;;;;;;5068989;28;20025;-66
2022/01/24 01:02:52;;;;;;;3.38;1.45;;;;;;;;;;5068736;28;20013;-64
2022/01/24 01:06:17;;;;;;;2.20;1.48;;;;;;;;;;5066896;28;20033;-66
2022/01/24 01:18:49;;;;;;;0.88;0.77;;;;;;;;;;5069334;28;20055;-65
2022/01/24 01:21:15;;;;;;;2.17;1.30;;;;;;;;;;5070065;28;20048;-66
2022/01/24 01:23:45;;;;;;;2.40;1.80;;;;;;;;;;5072760;28;20057;-65
2022/01/24 01:26:19;;;;;;;3.35;2.22;;;;;;;;;;5058889;28;20083;-66
2022/01/24 01:28:47;;;;;;;8.07;1.77;;;;;;;;;;5071953;28;20024;-66
2022/01/24 01:31:22;;;;;;;1.77;1.25;;;;;;;;;;5072914;28;20032;-65
2022/01/24 01:55:40;;;;;;;4.47;1.80;;;;;;;;;;5071855;28;20173;-65
2022/01/24 01:58:06;;;;;;;1.45;1.27;;;;;;;;;;5071679;28;20044;-65
2022/01/24 02:00:31;;;;;;;1.77;1.05;;;;;;;;;;5072386;28;20456;-65
2022/01/24 02:02:57;;;;;;;3.00;1.73;;;;;;;;;;5072968;28;20033;-66
2022/01/24 02:05:22;;;;;;;1.52;1.30;;;;;;;;;;5053797;28;20031;-65
2022/01/24 02:07:48;;;;;;;1.40;0.95;;;;;;;;;;5072161;28;20096;-65
2022/01/24 02:10:14;;;;;;;2.05;1.45;;;;;;;;;;5071788;28;20366;-65
2022/01/24 02:12:39;;;;;;;3.00;0.95;;;;;;;;;;5072137;28;20030;-65
2022/01/24 02:15:05;;;;;;;2.67;1.55;;;;;;;;;;5071965;28;20023;-65
2022/01/24 02:17:43;;;;;;;0.70;0.52;;;;;;;;;;5072185;28;20438;-65
2022/01/24 02:22:42;;;;;;;6.72;1.60;;;;;;;;;;5072028;28;20038;-65
2022/01/24 02:25:22;;;;;;;1.88;1.17;;;;;;;;;;5062782;28;20147;-65
2022/01/24 02:27:54;;;;;;;1.42;1.02;;;;;;;;;;5071891;28;20109;-65
2022/01/24 02:30:43;;;;;;;1.90;1.20;;;;;;;;;;5071458;28;20396;-65
2022/01/24 02:33:09;;;;;;;2.72;1.40;;;;;;;;;;5072133;28;20025;-65
2022/01/24 02:35:34;;;;;;;1.83;1.55;;;;;;;;;;5071853;28;20033;-65
2022/01/24 02:38:06;;;;;;;1.92;1.27;;;;;;;;;;5071260;28;20081;-65
2022/01/24 02:40:32;;;;;;;1.98;1.02;;;;;;;;;;5069731;28;20104;-65
2022/01/24 02:48:26;;;;;;;1.45;0.90;;;;;;;;;;5109093;22;20125;-66
2022/01/24 02:53:39;;;;;;;1.98;0.75;;;;;;;;;;5091569;28;20057;-67
2022/01/24 02:56:05;;;;;;;1.80;0.60;;;;;;;;;;5091549;28;20028;-67
2022/01/24 02:58:30;;;;;;;1.02;0.95;;;;;;;;;;5091059;28;20035;-67
2022/01/24 03:00:56;;;;;;;1.20;0.85;;;;;;;;;;5091876;28;20121;-67
2022/01/24 03:03:22;;;;;;;3.22;1.27;;;;;;;;;;5091752;28;20028;-67
2022/01/24 03:05:47;;;;;;;1.60;1.10;;;;;;;;;;5091132;28;20028;-66
2022/01/24 03:08:14;;;;;;;2.45;1.15;;;;;;;;;;5090081;28;20107;-66
2022/01/24 03:10:43;;;;;;;3.05;0.73;;;;;;;;;;5091557;28;20074;-66
2022/01/24 03:15:34;;;;;;;0.90;0.63;;;;;;;;;;5091066;28;20024;-67
2022/01/24 03:17:59;;;;;;;1.13;0.90;;;;;;;;;;5091305;28;20028;-67
2022/01/24 03:20:25;;;;;;;0.57;0.57;;;;;;;;;;5090289;28;20020;-67
2022/01/24 03:22:50;;;;;;;10.48;1.00;;;;;;;;;;5090535;28;20260;-66
2022/01/24 03:25:15;;;;;;;3.17;1.40;;;;;;;;;;5090731;28;20450;-66
2022/01/24 03:27:40;;;;;;;2.28;0.80;;;;;;;;;;5091140;28;20286;-67
2022/01/24 03:30:06;;;;;;;1.63;1.00;;;;;;;;;;5089884;28;20024;-66
2022/01/24 03:32:31;;;;;;;1.42;1.08;;;;;;;;;;5091177;28;20270;-66
2022/01/24 03:34:56;;;;;;;2.65;1.48;;;;;;;;;;5089905;28;20064;-66
2022/01/24 03:37:21;;;;;;;1.40;1.20;;;;;;;;;;5090761;28;20517;-67
2022/01/24 03:39:46;;;;;;;1.75;1.13;;;;;;;;;;5090502;28;20266;-67
2022/01/24 03:42:11;;;;;;;1.83;0.70;;;;;;;;;;5090746;28;20515;-66
2022/01/24 03:44:38;;;;;;;1.13;0.75;;;;;;;;;;5071859;28;20262;-67
2022/01/24 03:47:29;;;;;;;5.63;1.15;;;;;;;;;;5090807;28;20032;-66
2022/01/24 03:49:48;;;;;;;1.38;1.00;;;;;;;;;;5089792;28;20043;-66
2022/01/24 03:52:18;;;;;;;6.97;1.33;;;;;;;;;;5090889;28;20024;-66
2022/01/24 03:54:43;;;;;;;2.33;1.27;;;;;;;;;;5089652;28;20024;-67
2022/01/24 03:57:10;;;;;;;1.95;0.82;;;;;;;;;;5090291;28;20121;-66
2022/01/24 03:59:35;;;;;;;2.85;0.88;;;;;;;;;;5090040;28;20391;-66
2022/01/24 04:02:01;;;;;;;6.40;1.00;;;;;;;;;;5078696;28;20219;-67
2022/01/24 04:04:27;;;;;;;1.90;0.90;;;;;;;;;;5089886;28;20262;-66
2022/01/24 04:06:52;;;;;;;2.15;1.20;;;;;;;;;;5090587;28;20023;-66
2022/01/24 04:09:17;;;;;;;0.88;0.57;;;;;;;;;;5089900;28;20365;-67
2022/01/24 04:11:42;;;;;;;2.10;0.85;;;;;;;;;;5090130;28;20089;-66
2022/01/24 04:17:38;;;;;;;1.80;1.05;;;;;;;;;;5091186;28;20070;-66
2022/01/24 04:22:20;;;;;;;2.42;1.38;;;;;;;;;;5080195;28;20020;-66
2022/01/24 04:24:46;;;;;;;3.92;1.10;;;;;;;;;;5089767;28;20029;-66
2022/01/24 04:27:13;;;;;;;2.13;1.30;;;;;;;;;;5090097;28;20030;-66
2022/01/24 04:29:39;;;;;;;6.18;1.80;;;;;;;;;;5089898;28;20035;-67
2022/01/24 04:32:04;;;;;;;3.83;1.33;;;;;;;;;;5090245;28;20024;-66
2022/01/24 04:34:29;;;;;;;3.05;1.13;;;;;;;;;;5089829;28;20020;-66
2022/01/24 04:36:55;;;;;;;2.08;1.10;;;;;;;;;;5089650;28;20020;-66
2022/01/24 04:39:20;;;;;;;1.02;0.75;;;;;;;;;;5089859;28;20024;-66
2022/01/24 04:41:49;;;;;;;1.70;1.17;;;;;;;;;;5090378;28;20073;-66
2022/01/24 04:44:48;;;;;;;0.82;0.73;;;;;;;;;;5089196;28;20499;-66
2022/01/24 04:47:30;;;;;;;3.08;1.83;;;;;;;;;;5090029;28;20020;-66
2022/01/24 04:52:54;;;;;;;4.03;1.52;;;;;;;;;;5089621;28;20034;-66
2022/01/24 04:55:20;;;;;;;2.20;1.40;;;;;;;;;;5089561;28;20259;-66
2022/01/24 04:57:46;;;;;;;3.22;1.60;;;;;;;;;;5093387;28;20044;-67
2022/01/24 05:00:12;;;;;;;4.53;1.45;;;;;;;;;;5092797;28;20073;-67
2022/01/24 05:02:37;;;;;;;1.55;1.00;;;;;;;;;;5093796;28;20422;-66
2022/01/24 05:05:02;;;;;;;2.20;1.10;;;;;;;;;;5093944;28;20115;-66
2022/01/24 05:07:28;;;;;;;3.75;1.60;;;;;;;;;;5093736;28;20111;-66
2022/01/24 05:11:01;;;;;;;3.10;1.73;;;;;;;;;;5090614;28;20036;-66
2022/01/24 05:23:31;;;;;;;3.25;1.77;;;;;;;;;;5091640;28;20054;-66
2022/01/24 05:25:57;;;;;;;1.83;0.90;;;;;;;;;;5090964;28;20044;-66
2022/01/24 05:28:22;;;;;;;2.83;1.35;;;;;;;;;;5090253;28;20122;-66
2022/01/24 05:30:48;;;;;;;2.58;1.50;;;;;;;;;;5089966;28;20027;-67
2022/01/24 05:33:14;;;;;;;3.70;1.48;;;;;;;;;;5089229;28;20035;-66
2022/01/24 05:35:39;;;;;;;1.88;1.50;;;;;;;;;;5092299;28;20364;-66
2022/01/24 05:38:04;;;;;;;4.45;2.35;;;;;;;;;;5091494;28;20016;-68
2022/01/24 05:40:30;;;;;;;4.57;1.98;;;;;;;;;;5093047;28;20469;-67
2022/01/24 05:42:55;;;;;;;3.88;1.75;;;;;;;;;;5092659;28;20044;-67
2022/01/24 05:45:20;;;;;;;8.18;2.33;;;;;;;;;;5093420;28;20457;-67
2022/01/24 05:47:45;;;;;;;3.70;1.75;;;;;;;;;;5092442;28;20024;-67
2022/01/24 05:50:11;;;;;;;5.88;2.40;;;;;;;;;;5092921;28;20128;-67
2022/01/24 05:52:36;;;;;;;3.42;1.67;;;;;;;;;;5091626;28;20027;-67
2022/01/24 05:55:01;;;;;;;3.08;2.17;;;;;;;;;;5091319;28;20043;-66
2022/01/24 05:57:26;;;;;;;4.30;2.20;;;;;;;;;;5088390;28;20046;-66
2022/01/24 05:59:52;;;;;;;3.85;1.88;;;;;;;;;;5073478;28;20016;-67
2022/01/24 06:02:17;;;;;;;5.32;3.42;;;;;;;;;;5089345;28;20028;-67
2022/01/24 06:04:42;;;;;;;6.13;2.50;;;;;;;;;;5089230;28;20140;-66
2022/01/24 06:07:07;;;;;;;4.25;2.50;;;;;;;;;;5088386;28;20024;-66
2022/01/24 06:09:32;;;;;;;4.93;2.00;;;;;;;;;;5089327;28;20064;-66
2022/01/24 06:11:58;;;;;;;4.00;2.17;;;;;;;;;;5090715;28;20213;-66
2022/01/24 06:14:23;;;;;;;4.32;2.00;;;;;;;;;;5089577;28;20039;-67
2022/01/24 06:16:48;;;;;;;4.47;2.03;;;;;;;;;;5079883;28;20082;-67
2022/01/24 06:19:14;;;;;;;4.10;1.90;;;;;;;;;;5087472;28;20319;-66
2022/01/24 06:21:40;;;;;;;1.95;1.50;;;;;;;;;;5090121;28;20483;-67
2022/01/24 06:24:06;;;;;;;3.97;1.90;;;;;;;;;;5089324;28;20110;-67
2022/01/24 06:26:31;;;;;;;5.90;1.83;;;;;;;;;;5090137;28;20135;-69
2022/01/24 06:28:56;;;;;;;4.07;2.08;;;;;;;;;;5088775;28;20501;-67
2022/01/24 06:31:21;;;;;;;3.72;2.17;;;;;;;;;;5090683;28;20472;-66
2022/01/24 06:33:48;;;;;;;3.08;2.15;;;;;;;;;;5090017;28;20035;-67
2022/01/24 06:36:13;;;;;;;3.65;2.08;;;;;;;;;;5090301;28;20028;-66
2022/01/24 06:38:38;;;;;;;4.15;2.13;;;;;;;;;;5089375;28;20020;-67
2022/01/24 06:41:04;;;;;;;6.47;2.33;;;;;;;;;;5089318;28;20032;-67
2022/01/24 06:43:29;;;;;;;6.18;1.92;;;;;;;;;;5089560;28;20016;-66
2022/01/24 06:45:54;;;;;;;3.95;2.08;;;;;;;;;;5089177;28;20038;-66
2022/01/24 06:48:19;;;;;;;14.57;2.65;;;;;;;;;;5088145;28;20110;-66
2022/01/24 06:50:45;;;;;;;4.60;2.38;;;;;;;;;;5088750;28;20158;-67
2022/01/24 06:53:10;;;;;;;12.13;2.17;;;;;;;;;;5087850;28;20024;-67
2022/01/24 06:55:35;;;;;;;5.88;2.85;;;;;;;;;;5089805;28;20031;-67
2022/01/24 06:58:01;;;;;;;4.22;2.78;;;;;;;;;;5091070;28;20402;-67
2022/01/24 07:00:26;;;;;;;6.97;3.40;;;;;;;;;;5090875;28;20028;-66
2022/01/24 07:02:55;;;;;;;9.85;4.80;;;;;;;;;;5091729;28;20122;-66
2022/01/24 07:05:20;;;;;;;12.05;6.45;;;;;;;;;;5090285;28;20103;-66
2022/01/24 07:07:45;;;;;;;20.95;7.47;;;;;;;;;;5091151;28;20115;-66
2022/01/24 07:10:11;;;;;;;7.18;3.70;;;;;;;;;;5089910;28;20099;-66
2022/01/24 07:12:36;;;;;;;5.90;2.90;;;;;;;;;;5091429;28;20024;-66
2022/01/24 07:15:07;;;;;;;10.68;3.65;;;;;;;;;;5090011;28;20118;-66
2022/01/24 07:17:56;;;;;;;7.13;3.45;;;;;;;;;;5089177;28;20111;-66
2022/01/24 07:20:17;;;;;;;10.15;3.80;;;;;;;;;;5088962;28;20016;-66
2022/01/24 07:22:43;;;;;;;9.70;4.45;;;;;;;;;;5090512;28;20488;-66
2022/01/24 07:25:08;;;;;;;8.40;4.60;;;;;;;;;;5090599;28;20365;-67
2022/01/24 07:27:34;;;;;;;7.05;3.33;;;;;;;;;;5089480;28;20047;-66
2022/01/24 07:30:01;;;;;;;5.80;3.05;;;;;;;;;;5088460;28;20031;-66
2022/01/24 07:32:26;;;;;;;16.98;6.18;;;;;;;;;;5090591;28;20082;-66
2022/01/24 07:34:51;;;;;;;15.07;4.20;;;;;;;;;;5091394;28;20479;-66
2022/01/24 07:37:17;;;;;;;23.48;4.35;;;;;;;;;;5091092;28;20072;-66
2022/01/24 07:39:42;;;;;;;19.67;3.83;;;;;;;;;;5091558;28;20023;-66
2022/01/24 07:42:16;;;;;;;12.68;4.10;;;;;;;;;;5091440;28;20016;-66
2022/01/24 07:44:41;;;;;;;21.33;4.05;;;;;;;;;;5090990;28;20098;-66
2022/01/24 07:47:06;;;;;;;13.60;3.97;;;;;;;;;;5091000;28;20165;-66
2022/01/24 07:49:32;;;;;;;13.75;4.43;;;;;;;;;;5088829;28;20027;-66
2022/01/24 07:51:57;;;;;;;22.63;4.30;;;;;;;;;;5089225;28;20150;-67
2022/01/24 07:54:22;;;;;;;10.70;4.40;;;;;;;;;;5089861;28;20161;-66
2022/01/24 07:56:48;;;;;;;8.02;4.57;;;;;;;;;;5089420;28;20017;-66
2022/01/24 07:59:14;;;;;;;9.85;4.20;;;;;;;;;;5090077;28;20031;-67
2022/01/24 08:01:41;;;;;;;12.68;4.50;;;;;;;;;;5090449;28;20448;-66
2022/01/24 08:04:07;;;;;;;8.90;4.28;;;;;;;;;;5072179;28;20615;-67
2022/01/24 08:06:32;;;;;;;11.23;4.55;;;;;;;;;;5089359;28;20095;-67
2022/01/24 08:08:57;;;;;;;13.60;4.10;;;;;;;;;;5089871;28;20055;-66
2022/01/24 08:11:23;;;;;;;7.60;4.22;;;;;;;;;;5089862;28;20457;-66
2022/01/24 08:13:49;;;;;;;8.77;4.45;;;;;;;;;;5087035;28;20414;-66
2022/01/24 08:16:14;;;;;;;9.70;3.85;;;;;;;;;;5089856;28;20020;-66
2022/01/24 08:18:39;;;;;;;10.20;4.03;;;;;;;;;;5090177;28;20027;-66
2022/01/24 08:21:05;;;;;;;10.35;4.38;;;;;;;;;;5089217;28;20433;-67
2022/01/24 08:23:30;;;;;;;20.38;4.72;;;;;;;;;;5090774;28;20020;-67
2022/01/24 08:25:55;;;;;;;9.70;4.63;;;;;;;;;;5089911;28;20020;-66
2022/01/24 08:28:20;;;;;;;9.60;4.25;;;;;;;;;;5090380;28;20020;-66
2022/01/24 08:30:45;;;;;;;10.05;4.65;;;;;;;;;;5074913;28;20469;-66
2022/01/24 08:33:10;;;;;;;9.32;4.90;;;;;;;;;;5075507;28;20107;-66
2022/01/24 08:35:37;;;;;;;15.93;5.03;;;;;;;;;;5090141;28;20024;-66
2022/01/24 08:38:03;;;;;;;11.52;5.97;;;;;;;;;;5087423;28;20023;-66
2022/01/24 08:40:31;;;;;;;13.95;5.65;;;;;;;;;;5089487;28;20043;-67
2022/01/24 08:43:05;;;;;;;9.05;4.80;;;;;;;;;;5089075;28;20523;-66
2022/01/24 08:45:48;;;;;;;14.48;5.18;;;;;;;;;;5090463;28;20020;-67
2022/01/24 08:50:44;;;;;;;9.65;4.20;;;;;;;;;;5067578;28;20055;-66
2022/01/24 08:53:10;;;;;;;11.65;4.95;;;;;;;;;;5067085;28;20040;-66
2022/01/24 08:55:36;;;;;;;12.60;4.10;;;;;;;;;;5056836;28;20039;-66
2022/01/24 08:58:02;;;;;;;6.07;3.78;;;;;;;;;;5068708;28;20035;-66
2022/01/24 09:00:27;;;;;;;15.93;3.70;;;;;;;;;;5069261;28;20016;-66
2022/01/24 09:02:53;;;;;;;5.38;3.50;;;;;;;;;;5069363;28;20078;-66
2022/01/24 09:05:18;;;;;;;7.65;3.65;;;;;;;;;;5070029;28;20024;-66
2022/01/24 09:07:44;;;;;;;10.13;3.53;;;;;;;;;;5051038;28;20032;-66
2022/01/24 09:10:10;;;;;;;11.52;4.00;;;;;;;;;;5068554;28;20115;-66
2022/01/24 09:12:35;;;;;;;7.55;4.00;;;;;;;;;;5069879;28;20055;-66
2022/01/24 09:15:01;;;;;;;6.25;3.70;;;;;;;;;;5068479;28;20060;-67
2022/01/24 09:17:26;;;;;;;6.15;3.60;;;;;;;;;;5069689;28;20025;-66
2022/01/24 09:19:51;;;;;;;13.25;3.20;;;;;;;;;;5068992;28;20021;-66
2022/01/24 09:22:17;;;;;;;7.45;3.47;;;;;;;;;;5068027;28;20082;-66
2022/01/24 09:24:42;;;;;;;8.13;3.73;;;;;;;;;;5067795;28;20032;-66
2022/01/24 09:27:07;;;;;;;6.72;4.00;;;;;;;;;;5069681;28;20263;-66
2022/01/24 09:29:32;;;;;;;6.75;4.10;;;;;;;;;;5069453;28;20025;-63
2022/01/24 09:31:58;;;;;;;5.35;3.25;;;;;;;;;;5069272;28;20503;-64
2022/01/24 09:34:23;;;;;;;8.82;3.33;;;;;;;;;;5069542;28;20081;-66
2022/01/24 09:36:49;;;;;;;5.40;3.50;;;;;;;;;;5051705;28;20487;-66
2022/01/24 09:39:18;;;;;;;12.52;3.95;;;;;;;;;;5068932;28;20369;-66
2022/01/24 09:41:43;;;;;;;15.20;3.50;;;;;;;;;;5069339;28;20027;-66
2022/01/24 09:44:08;;;;;;;7.72;4.55;;;;;;;;;;5072779;28;20016;-67
2022/01/24 09:46:37;;;;;;;8.18;3.03;;;;;;;;;;5072538;28;20072;-66
2022/01/24 09:49:18;;;;;;;4.50;2.80;;;;;;;;;;5072138;28;20085;-66
2022/01/24 09:51:50;;;;;;;3.97;2.25;;;;;;;;;;5071199;28;20087;-66
2022/01/24 09:54:20;;;;;;;2.45;1.65;;;;;;;;;;5072520;28;20028;-66
2022/01/24 09:56:51;;;;;;;6.60;3.13;;;;;;;;;;5072707;28;20020;-66
2022/01/24 09:59:22;;;;;;;6.07;2.08;;;;;;;;;;5072198;28;20009;-67
2022/01/24 10:01:50;;;;;;;6.93;3.78;;;;;;;;;;5072339;28;20059;-66
2022/01/24 10:04:45;;;;;;;3.83;1.48;;;;;;;;;;5071634;28;20081;-66
2022/01/24 10:07:12;;;;;;;7.32;3.55;;;;;;;;;;4983236;28;20097;-65
2022/01/24 10:09:39;;;;;;;3.47;2.42;;;;;;;;;;5072202;28;20024;-67
2022/01/24 10:12:31;;;;;;;4.28;2.83;;;;;;;;;;5072034;28;20032;-66
2022/01/24 10:17:41;;;;;;;1.55;1.25;;;;;;;;;;5072631;28;20070;-66
2022/01/24 10:20:20;;;;;;;7.95;2.85;;;;;;;;;;5072695;28;20278;-66
2022/01/24 10:23:06;;;;;;;3.90;1.88;;;;;;;;;;5072386;28;20020;-66
2022/01/24 10:25:31;;;;;;;1.75;1.25;;;;;;;;;;5072496;28;20028;-66
2022/01/24 10:28:01;;;;;;;5.32;2.47;;;;;;;;;;5071261;28;20032;-66
2022/01/24 10:30:27;;;;;;;5.60;1.83;;;;;;;;;;5072199;28;20047;-66
2022/01/24 10:32:52;;;;;;;3.67;1.98;;;;;;;;;;5072414;28;20477;-66
2022/01/24 10:35:23;;;;;;;9.15;2.30;;;;;;;;;;5071838;28;20029;-66
2022/01/24 10:37:52;;;;;;;4.25;2.42;;;;;;;;;;5071254;28;20462;-66
2022/01/24 10:40:30;;;;;;;5.55;3.42;;;;;;;;;;5072316;28;20017;-66
2022/01/24 10:43:14;;;;;;;11.00;3.13;;;;;;;;;;5072078;28;20024;-66
2022/01/24 10:45:43;;;;;;;6.57;3.85;;;;;;;;;;5052121;28;20033;-66
2022/01/24 10:48:08;;;;;;;12.65;3.70;;;;;;;;;;5067648;28;20051;-66
2022/01/24 10:50:33;;;;;;;3.60;2.03;;;;;;;;;;5071430;28;20146;-66
2022/01/24 10:53:08;;;;;;;11.80;3.60;;;;;;;;;;5070978;28;20048;-66
2022/01/24 10:55:33;;;;;;;9.40;3.30;;;;;;;;;;5052678;28;20020;-66
2022/01/24 10:58:09;;;;;;;3.95;2.30;;;;;;;;;;5071391;28;20027;-66
2022/01/24 11:00:35;;;;;;;1.30;1.02;;;;;;;;;;5071793;28;20024;-66
2022/01/24 11:03:01;;;;;;;4.18;2.08;;;;;;;;;;5070949;28;20107;-66
2022/01/24 11:05:27;;;;;;;3.10;1.85;;;;;;;;;;5053512;28;20111;-66
2022/01/24 11:08:00;;;;;;;8.15;3.10;;;;;;;;;;5053124;28;20460;-66
2022/01/24 11:10:26;;;;;;;7.80;3.30;;;;;;;;;;5071316;28;20443;-66
2022/01/24 11:12:52;;;;;;;4.72;2.60;;;;;;;;;;5071224;28;20025;-66
2022/01/24 11:15:18;;;;;;;3.13;1.63;;;;;;;;;;5070831;28;20069;-66
2022/01/24 11:17:43;;;;;;;4.78;2.45;;;;;;;;;;5070511;28;20028;-66
2022/01/24 11:20:12;;;;;;;6.85;3.08;;;;;;;;;;5070210;28;20170;-66
2022/01/24 11:22:42;;;;;;;5.95;3.08;;;;;;;;;;5070257;28;20142;-66
2022/01/24 11:25:09;;;;;;;8.70;3.13;;;;;;;;;;5070571;28;20051;-66
2022/01/24 11:27:34;;;;;;;6.97;2.63;;;;;;;;;;5065751;28;20411;-66
2022/01/24 11:30:02;;;;;;;4.40;2.60;;;;;;;;;;5070193;28;20075;-66
2022/01/24 11:32:33;;;;;;;2.17;1.40;;;;;;;;;;5071174;28;20028;-66
2022/01/24 11:34:58;;;;;;;5.75;2.90;;;;;;;;;;5080144;28;20024;-66
2022/01/24 11:37:39;;;;;;;3.70;2.17;;;;;;;;;;5070364;28;20354;-66
2022/01/24 11:40:07;;;;;;;5.65;1.88;;;;;;;;;;5079170;28;20440;-66
2022/01/24 11:42:34;;;;;;;7.70;2.55;;;;;;;;;;5071228;28;20048;-66
2022/01/24 11:45:04;;;;;;;5.57;2.47;;;;;;;;;;5070499;28;20063;-66
2022/01/24 11:47:31;;;;;;;8.52;1.95;;;;;;;;;;5070318;28;20024;-66
2022/01/24 11:49:57;;;;;;;7.82;2.25;;;;;;;;;;5070303;28;20082;-66
2022/01/24 11:52:30;;;;;;;2.20;1.58;;;;;;;;;;5070849;28;20028;-66
2022/01/24 11:55:26;;;;;;;5.57;2.55;;;;;;;;;;5069979;28;20016;-66
2022/01/24 11:57:57;;;;;;;9.18;1.58;;;;;;;;;;5059402;28;20071;-66
2022/01/24 12:00:26;;;;;;;2.55;1.73;;;;;;;;;;5066837;28;20024;-66
2022/01/24 12:02:53;;;;;;;1.55;1.45;;;;;;;;;;5069167;28;20469;-66
2022/01/24 12:05:26;;;;;;;5.00;1.77;;;;;;;;;;5069959;28;20024;-66
2022/01/24 12:07:53;;;;;;;3.25;2.13;;;;;;;;;;5070217;28;20020;-64
2022/01/24 12:10:26;;;;;;;3.47;2.00;;;;;;;;;;5069729;28;20380;-64
2022/01/24 12:12:54;;;;;;;2.92;1.52;;;;;;;;;;5070315;28;20272;-64
2022/01/24 12:15:41;;;;;;;4.22;1.98;;;;;;;;;;5069795;28;20029;-64
2022/01/24 12:18:06;;;;;;;7.68;2.90;;;;;;;;;;5066416;28;20044;-64
2022/01/24 12:20:31;;;;;;;3.65;2.13;;;;;;;;;;5069879;28;20020;-65
2022/01/24 12:22:57;;;;;;;5.13;1.42;;;;;;;;;;5070193;28;20766;-65
2022/01/24 12:25:41;;;;;;;4.40;2.13;;;;;;;;;;5069795;28;20020;-64
2022/01/24 12:28:19;;;;;;;6.30;1.80;;;;;;;;;;5069544;28;20016;-67
2022/01/24 12:31:11;;;;;;;5.20;2.97;;;;;;;;;;5070321;28;20364;-65
2022/01/24 12:33:54;;;;;;;9.48;2.72;;;;;;;;;;5031677;28;20025;-65
2022/01/24 12:36:49;;;;;;;2.72;1.40;;;;;;;;;;5069640;28;20027;-65
2022/01/24 12:39:23;;;;;;;12.55;2.20;;;;;;;;;;5069444;28;20459;-65
2022/01/24 12:41:57;;;;;;;5.72;2.20;;;;;;;;;;5069587;28;20012;-65
2022/01/24 12:47:05;;;;;;;2.50;1.85;;;;;;;;;;5068841;28;20063;-65
2022/01/24 12:49:31;;;;;;;5.97;2.25;;;;;;;;;;5069228;28;20433;-65
2022/01/24 12:52:04;;;;;;;4.80;2.33;;;;;;;;;;5069484;28;20056;-65
2022/01/24 12:54:34;;;;;;;6.10;2.65;;;;;;;;;;5049815;28;20036;-65
2022/01/24 12:57:05;;;;;;;6.00;3.20;;;;;;;;;;5067107;28;20024;-65
2022/01/24 12:59:31;;;;;;;14.73;3.38;;;;;;;;;;5069144;28;20354;-65
2022/01/24 13:02:00;;;;;;;4.38;2.72;;;;;;;;;;5069382;28;20074;-65
2022/01/24 13:04:37;;;;;;;6.45;2.90;;;;;;;;;;5069895;28;20044;-65
2022/01/24 13:07:02;;;;;;;3.55;1.80;;;;;;;;;;5069855;28;20098;-65
2022/01/24 13:09:27;;;;;;;9.70;2.92;;;;;;;;;;5068893;28;20472;-65
2022/01/24 13:11:54;;;;;;;10.50;2.70;;;;;;;;;;5069340;28;20012;-65
2022/01/24 13:22:23;;;;;;;3.72;1.60;;;;;;;;;;5073128;28;20089;-65
2022/01/24 13:25:04;;;;;;;4.45;2.45;;;;;;;;;;5072817;28;20027;-65
2022/01/24 13:27:46;;;;;;;6.30;2.70;;;;;;;;;;5072380;28;20548;-65
2022/01/24 13:30:15;;;;;;;4.35;2.50;;;;;;;;;;5072248;28;20028;-65
2022/01/24 13:32:51;;;;;;;4.18;2.22;;;;;;;;;;5073299;28;20104;-65
2022/01/24 13:35:16;;;;;;;5.03;2.17;;;;;;;;;;5073345;28;20038;-65
2022/01/24 13:37:41;;;;;;;4.57;2.50;;;;;;;;;;5072887;28;20087;-65
2022/01/24 13:40:07;;;;;;;3.47;1.92;;;;;;;;;;5072877;28;20049;-65
2022/01/24 13:42:36;;;;;;;5.15;2.70;;;;;;;;;;5072960;28;20092;-65
2022/01/24 13:45:01;;;;;;;3.78;1.80;;;;;;;;;;5070669;28;20030;-65
2022/01/24 13:47:26;;;;;;;1.77;1.05;;;;;;;;;;5072310;28;20404;-65
2022/01/24 13:49:51;;;;;;;6.30;2.27;;;;;;;;;;5070409;28;20032;-65
2022/01/24 13:52:18;;;;;;;5.70;2.10;;;;;;;;;;5068926;28;20275;-65
2022/01/24 13:54:43;;;;;;;4.05;2.10;;;;;;;;;;5069752;28;20039;-65
2022/01/24 13:57:15;;;;;;;4.68;2.67;;;;;;;;;;5071825;28;20103;-66
2022/01/24 13:59:42;;;;;;;4.68;2.38;;;;;;;;;;5072365;28;20021;-65
2022/01/24 14:02:15;;;;;;;8.40;1.55;;;;;;;;;;5071808;28;20033;-65
2022/01/24 14:04:42;;;;;;;4.88;1.02;;;;;;;;;;5069330;28;20024;-66
2022/01/24 14:07:11;;;;;;;1.70;1.42;;;;;;;;;;5071881;28;20063;-65
2022/01/24 14:09:43;;;;;;;2.50;1.42;;;;;;;;;;5053787;28;20017;-65
2022/01/24 14:12:13;;;;;;;1.10;0.80;;;;;;;;;;5071935;28;20055;-65
2022/01/24 14:14:44;;;;;;;3.60;1.80;;;;;;;;;;5072059;28;20043;-65
2022/01/24 14:19:38;;;;;;;6.40;2.83;;;;;;;;;;5071504;28;20086;-65
2022/01/24 14:22:08;;;;;;;4.75;1.48;;;;;;;;;;5071601;28;20394;-66
2022/01/24 14:24:44;;;;;;;4.38;2.13;;;;;;;;;;5072407;28;20028;-66
2022/01/24 14:27:09;;;;;;;1.38;1.05;;;;;;;;;;5064395;28;20036;-66
2022/01/24 14:29:38;;;;;;;5.53;2.72;;;;;;;;;;5071288;28;20032;-66
2022/01/24 14:32:10;;;;;;;6.25;2.15;;;;;;;;;;5071862;28;20020;-66
2022/01/24 14:34:35;;;;;;;5.50;1.33;;;;;;;;;;5072638;28;20016;-66
2022/01/24 14:37:05;;;;;;;6.70;2.58;;;;;;;;;;5071227;28;20050;-66
2022/01/24 14:39:30;;;;;;;6.97;2.67;;;;;;;;;;5070973;28;20017;-66
2022/01/24 14:41:56;;;;;;;2.22;1.55;;;;;;;;;;5071567;28;20504;-65
2022/01/24 14:47:06;;;;;;;5.63;1.63;;;;;;;;;;5072355;28;20522;-66
2022/01/24 14:49:33;;;;;;;7.60;3.05;;;;;;;;;;5091803;22;20534;-64
2022/01/24 14:52:01;;;;;;;4.60;2.03;;;;;;;;;;5090827;28;20058;-64
2022/01/24 14:54:28;;;;;;;7.57;3.40;;;;;;;;;;5091807;28;20031;-65
2022/01/24 14:56:54;;;;;;;3.72;1.73;;;;;;;;;;5092424;28;20015;-65
2022/01/24 14:59:21;;;;;;;1.67;1.05;;;;;;;;;;5091312;28;20077;-64
2022/01/24 15:01:46;;;;;;;1.40;1.15;;;;;;;;;;5091974;28;20103;-65
2022/01/24 15:04:12;;;;;;;4.53;2.17;;;;;;;;;;5090572;28;20462;-64
2022/01/24 15:06:37;;;;;;;11.50;2.60;;;;;;;;;;5092007;28;20020;-65
2022/01/24 15:09:06;;;;;;;2.53;1.42;;;;;;;;;;5091215;28;20077;-65
2022/01/24 15:11:32;;;;;;;18.13;2.67;;;;;;;;;;5091292;28;20027;-65
2022/01/24 15:14:02;;;;;;;4.90;1.95;;;;;;;;;;5091544;28;20498;-64
2022/01/24 15:27:11;;;;;;;10.80;2.63;;;;;;;;;;5090607;28;20069;-64
2022/01/24 15:29:36;;;;;;;1.58;0.88;;;;;;;;;;5090889;28;20020;-65
2022/01/24 15:32:03;;;;;;;3.85;2.33;;;;;;;;;;5090748;28;20020;-65
2022/01/24 15:34:30;;;;;;;4.18;1.98;;;;;;;;;;5089571;28;20020;-65
2022/01/24 15:36:55;;;;;;;8.32;1.75;;;;;;;;;;5090552;28;20383;-64
2022/01/24 15:39:20;;;;;;;2.35;1.55;;;;;;;;;;5090407;28;20016;-65
2022/01/24 15:41:56;;;;;;;4.40;2.47;;;;;;;;;;5087835;28;20062;-64
2022/01/24 15:47:50;;;;;;;1.88;1.40;;;;;;;;;;5090797;28;20097;-65
2022/01/24 15:49:49;;;;;;;2.63;1.73;;;;;;;;;;5079006;28;20024;-64
2022/01/24 15:52:15;;;;;;;3.07;1.57;;;;;;;;;;5090296;28;20424;-65
2022/01/24 15:54:42;;;;;;;7.60;1.77;;;;;;;;;;5090608;28;20258;-65
2022/01/24 15:59:51;;;;;;;1.80;1.02;;;;;;;;;;5090104;28;20026;-65
2022/01/24 16:02:16;;;;;;;2.13;1.30;;;;;;;;;;5090002;28;20023;-64
2022/01/24 16:04:41;;;;;;;3.88;2.40;;;;;;;;;;5090281;28;20323;-65
2022/01/24 16:07:07;;;;;;;3.93;2.10;;;;;;;;;;5090272;28;20035;-65
2022/01/24 16:09:33;;;;;;;1.83;1.35;;;;;;;;;;5089807;28;20281;-65
2022/01/24 16:11:58;;;;;;;2.10;1.63;;;;;;;;;;5090119;28;20436;-65
2022/01/24 16:14:23;;;;;;;6.75;2.92;;;;;;;;;;5090199;28;20024;-65
2022/01/24 16:16:49;;;;;;;1.58;1.40;;;;;;;;;;5088955;28;20413;-65
2022/01/24 16:19:16;;;;;;;4.28;2.72;;;;;;;;;;5089439;28;20365;-65
2022/01/24 16:21:59;;;;;;;8.02;3.85;;;;;;;;;;5089996;28;20023;-64
2022/01/24 16:26:57;;;;;;;8.30;1.67;;;;;;;;;;5090186;28;20029;-66
2022/01/24 16:29:22;;;;;;;4.13;2.63;;;;;;;;;;5071050;28;20016;-66
2022/01/24 16:31:48;;;;;;;4.28;2.78;;;;;;;;;;5090418;28;20024;-65
2022/01/24 16:34:14;;;;;;;6.63;2.78;;;;;;;;;;5089229;28;20024;-65
2022/01/24 16:36:39;;;;;;;12.27;3.33;;;;;;;;;;5090055;28;20626;-65
2022/01/24 16:39:06;;;;;;;13.03;2.03;;;;;;;;;;5089604;28;20016;-66
2022/01/24 16:47:04;;;;;;;6.13;2.67;;;;;;;;;;5090071;28;20019;-65
2022/01/24 16:49:30;;;;;;;6.68;3.45;;;;;;;;;;5089437;28;20023;-66
2022/01/24 16:51:55;;;;;;;8.20;2.40;;;;;;;;;;5091864;28;20182;-65
2022/01/24 16:54:24;;;;;;;12.57;3.90;;;;;;;;;;5093376;28;20073;-66
2022/01/24 16:56:49;;;;;;;7.57;3.67;;;;;;;;;;5093868;28;20391;-65
2022/01/24 16:59:14;;;;;;;6.70;1.88;;;;;;;;;;5093240;28;20016;-65